Pilot Magazine UKGA

About You

Log In Register UKGA membership

Flight planning

Flight planning New flightplan NOTAM map LARS map & NOTAMs Danger area, mil. & TRA activations Weather map GPS route download Find waypoints Your waypoints New waypoint

Forums

Forums Currently discussing "Day Out via GA Recommendations"

Other items

Articles Events Links News Surveys Tips Other users Feedback UKGA membership About UKGA

METARs

UK

EGAA 020420Z AUTO 23007KT 9999 -RA SCT009 BKN018 12/10 Q1010 REDZ REUP
EGAC 020420Z AUTO 21007KT 9999 BKN011 BKN015 OVC040 12/10 Q1010
EGAE 012120Z 24007KT 9999 FEW007 SCT022 BKN045 14/12 Q1009
EGBB 020420Z 19007KT 140V210 CAVOK 11/09 Q1016
EGBJ 011750Z 22011KT 180V260 9999 FEW040 19/09 Q1016
EGCC 020420Z AUTO 18007KT 140V210 9999 -RA SCT040/// //////CB 12/10 Q1013 RERA TEMPO RA
EGCK 020420Z AUTO 23013KT 9999 OVC007/// 14/13 Q1013
EGCN 020420Z 18011KT CAVOK 13/09 Q1015
EGDM 020350Z AUTO 20008KT 9999 FEW015/// 11/10 Q1018
EGDR 020350Z AUTO 19010KT 9999 SCT003/// BKN018/// 14/13 Q1017
EGDY 020350Z AUTO 19008KT 9999 FEW018/// BKN045/// 14/12 Q1017
EGEC 011720Z 15014KT 9999 FEW042 14/12 Q1009
EGEO 011620Z 31007KT 9999 FEW031 14/11 Q1010
EGFF 020420Z AUTO 21011KT 9999 SCT019 BKN027 BKN033 14/12 Q1016
EGGD 020420Z AUTO 18007KT 160V220 9999 OVC022 13/11 Q1017
EGGP 020420Z 18015KT 9999 5000W -RA FEW011 BKN020 13/12 Q1013
EGGW 020420Z AUTO 20008KT 9999 BKN006 11/10 Q1018
EGHC 011650Z 22014KT 9999 FEW015 16/12 Q1018
EGHE 011650Z 22018KT 9999 FEW020 17/12 Q1018
EGHH 012320Z 22007KT 9999 FEW017 14/11 Q1020
EGHI 012120Z 21006KT 9999 FEW020 14/11 Q1020 
EGHQ 020420Z AUTO 21009KT 9999 BKN009/// 15/13 Q1017
EGJA 011820Z 22008KT 9999 FEW013 15/11 Q1020
EGJB 020420Z 21007KT 9999 FEW014 13/11 Q1020
EGJJ 020420Z AUTO 22004KT 9999 NCD 13/11 Q1020
EGKA 011850Z 23014KT 9999 FEW024 16/11 Q1019
EGKB 012120Z 21008KT CAVOK 13/08 Q1020 
EGKK 020420Z 18003KT CAVOK 12/10 Q1019
EGLC 020420Z AUTO 18006KT 150V230 9999 NCD 13/11 Q1019
EGLF 020420Z AUTO 17007KT 9999 NCD 11/10 Q1019
EGLL 020420Z AUTO 18006KT 9999 NCD 12/10 Q1019 NOSIG
EGMC 020420Z 20010KT CAVOK 13/11 Q1019
EGMD 020420Z AUTO 21009KT 9999 SCT014/// 15/13 Q1020
EGNH 011850Z 22015KT 5000 RA SCT006 BKN021 13/12 Q1014
EGNJ 020420Z AUTO 19014KT 9999 NCD 12/10 Q1015
EGNM 020420Z 20012KT 9999 SCT020 12/09 Q1013
EGNO 011550Z 26012KT 220V280 9999 SCT016 18/11 Q1014
EGNR 011950Z 19012KT 9999 SCT023 15/10 Q1014
EGNS 020420Z 24012KT 9999 SCT013 13/11 Q1011 TEMPO BKN013
EGNT 020420Z 21009KT 170V230 9999 SCT017 14/11 Q1011
EGNV 012050Z 20010KT 9999 VCSH FEW029 14/10 Q1014
EGNX 020420Z 18008KT 9999 FEW020 12/09 Q1015
EGOM 020350Z AUTO 25017KT 9999 RA OVC002/// 11/10 Q1010
EGOP 020350Z AUTO 28020KT 9999 // FEW010/// BKN028/// 14/12 Q1015
EGOS 020350Z AUTO 18009KT 9999 REDZ FEW031/// OVC041/// 13/10 Q1014
EGOV 020350Z AUTO 22010KT 9999 RA BKN031/// SCT057/// 13/11 Q1012
EGOW 011420Z 28008KT 9999 VCSH FEW020 SCT030 19/12 Q1014 RMK BLU
EGPA 020420Z 20002KT 9999 -RA FEW003 SCT005 BKN026 11/11 Q1009
EGPB 020420Z AUTO 24010KT 9999 BKN003/// OVC027/// 11/11 Q1008
EGPC 020420Z AUTO 14004KT 9999 BKN005/// OVC008/// 11/11 Q1009
EGPD 020420Z AUTO 16004KT 9999 SCT031 12/10 Q1009
EGPE 020420Z 00000KT 9999 SCT007 11/10 Q1008
EGPF 020420Z AUTO 25006KT 9999 FEW019/// BKN023/// BKN029/// //////TCU 12/11 Q1009
EGPH 020420Z VRB02KT 5000 -RA FEW013 SCT019 BKN033 12/11 Q1009
EGPI 020350Z AUTO 21008KT 9999 FEW018/// BKN030/// 11/11 Q1009
EGPK 020420Z 23009KT 9999 SCT015 13/10 Q1009
EGPL 020420Z AUTO 05004KT 9999 -RA NCD 11/10 Q1008
EGPN 011950Z VRB02KT 9999 VCSH FEW020 16/13 Q1010
EGPO 020420Z AUTO 00000KT 6000 -RA BKN003/// BKN011/// 11/11 Q1008
EGPU 020350Z AUTO VRB03KT 4500 BR FEW004/// BKN008/// 12/11 Q1007
EGQK 020350Z AUTO 06003KT 8000 -RA BKN068/// SCT084/// 11/10 Q1008
EGQL 020350Z 17003KT 9999 FEW009 OVC033 12/11 Q1008 RMK BLU
EGQM 020350Z AUTO 17009KT 9999 FEW020/// BKN070/// 13/12 Q1010
EGQS 020350Z 00000KT 9999 -RA FEW004 SCT065 OVC100 11/11 Q1009 RMK BLU
EGSC 011550Z 21009KT 9999 FEW040 20/10 Q1016
EGSH 020420Z AUTO 20007KT 150V230 9999 NCD 12/10 Q1018
EGSS 020420Z AUTO 17006KT 9999 NCD 10/09 Q1019
EGSY 011250Z 26015KT 9999 FEW024 17/10 Q1017
EGTC 011720Z 22015KT CAVOK 18/08 Q1016
EGTE 020150Z 18009KT 9999 FEW015 SCT028 14/12 Q1018
EGTK 012120Z 20005KT CAVOK 12/10 Q1018
EGUB 020350Z AUTO 16010KT 9999 NCD 11/10 Q1018
EGUL 020356Z AUTO 18007KT 9999 CLR 11/11 A3005 RMK AO2 SLP179 T01100108 $
EGUN 020356Z AUTO 20009KT 9999 CLR 12/12 A3005 RMK AO2 SLP179 T01160116 $
EGUW 020350Z AUTO 19009KT 9999 NCD 11/09 Q1018
EGVA 020356Z AUTO 20009KT 9999 FEW016 12/11 A3002 RMK AO2 SLP168 T01160114 $
EGVN 020420Z 20006KT 9999 FEW017 BKN200 12/10 Q1017 NOSIG RMK BLU BLU
EGVO 020350Z AUTO 19009KT 9999 NCD 12/11 Q1018
EGVP 020350Z AUTO 19003KT 9999 BKN014/// 11/10 Q1018
EGWU 020350Z AUTO 21007KT 9999 NCD 12/10 Q1018
EGXC 020350Z 19010KT CAVOK 11/10 Q1016 RMK BLU
EGXE 020350Z AUTO 16010KT 9999 FEW020/// OVC080/// 13/10 Q1012
EGXP 020350Z AUTO 20008KT 9999 // FEW090/// 11/09 Q1015
EGXS 020350Z AUTO 18008KT 9999 FEW090/// 11/10 Q1015
EGXT 020350Z AUTO 19012KT 9999 NCD 10/10 Q1016
EGXW 020350Z AUTO 19014KT 9999 NCD 12/09 Q1015
EGXZ 020350Z AUTO 16010KT 9999 -DZ BKN060/// 13/11 Q1013
EGYD 020350Z AUTO 19009KT 9999 BKN087/// 11/09 Q1016
EGYE 011250Z 24010KT 9999 SCT035 BKN100 ///// Q1014 RMK BLU
EGYH 020350Z AUTO 20010KT 9999 NCD 10/09 Q1016
EGYM 020350Z AUTO 17007KT 9999 NCD 11/10 Q1017
EGYP 020350Z 11004KT 9999 OVC021 01/M01 Q1003

About You

Log In Register UKGA membership

Airfields

Interactive airfield map Search by name Search by postcode Search by location Fuel prices Pilot reviews Latest
(No favourites selected)

Flight planning

Flight planning New flightplan NOTAM map LARS map & NOTAMs Danger area, mil. & TRA activations Weather map GPS route download Find waypoints Your waypoints New waypoint

Forums

Forums Currently discussing "Day Out via GA Recommendations"

Other items

Articles Events Links News Surveys Tips Other users Feedback UKGA membership About UKGA